Terminal Aerodrome Forecast
Issued by NWS

Home | Current Version | Previous Version | Graphics & Text | Print | Product List | Glossary On
Versions: 1 2 3 4 5 6 7 8 9 10 11 12 13 14 15 16 17 18 19 20 21 22 23 24 25 26 27 28 29 30
000
FTUS43 KLOT 061504 AAB
TAFORD
TAF AMD
KORD 061504Z 0615/0718 28005KT 3SM BR FEW003 BKN012 BKN250
      TEMPO 0615/0617 1SM BR SCT003 OVC010
     FM062200 27013G20KT 6SM BR SCT009 BKN020
     FM070000 26012G18KT P6SM FEW030 SCT250
     FM071500 26010G15KT P6SM BKN020=

USA.gov is the U.S. government's official web portal to all federal, state and local government web resources and services.